Time;durP1;ratioP1;P1;durP2;ratioP2;P2;SDS_P1;SDS_P2;PMS_P1;PMS_P2;Temp;Humidity;BMP_temperature;BMP_pressure;BME280_temperature;BME280_humidity;BME280_pressure;Samples;Min_cycle;Max_cycle;Signal;HPM_P1;HPM_P2
2023/09/19 00:00:22;;;;;;;22.98;2.78;;;;;;;14.99;100.00;100474.75;4944055;29;20090;-96
2023/09/19 00:02:54;;;;;;;19.35;3.25;;;;;;;15.01;100.00;100492.00;4959767;28;20059;-96
2023/09/19 00:05:25;;;;;;;15.95;2.63;;;;;;;14.99;100.00;100494.06;4944676;29;20078;-93
2023/09/19 00:07:59;;;;;;;18.27;2.40;;;;;;;14.98;100.00;100499.72;4925842;29;20039;-94
2023/09/19 00:10:31;;;;;;;19.98;2.95;;;;;;;14.96;100.00;100504.53;4941038;29;20287;-95
2023/09/19 00:13:00;;;;;;;16.42;3.10;;;;;;;14.95;100.00;100497.28;4943434;29;20050;-96
2023/09/19 00:15:28;;;;;;;20.23;2.78;;;;;;;14.88;100.00;100511.69;4919707;29;20544;-96
2023/09/19 00:17:57;;;;;;;20.38;2.67;;;;;;;14.89;100.00;100512.59;4959117;29;20028;-95
2023/09/19 00:20:25;;;;;;;27.52;3.30;;;;;;;14.85;100.00;100520.28;4948410;28;20031;-95
2023/09/19 00:22:51;;;;;;;18.83;2.67;;;;;;;14.81;100.00;100512.50;4955556;29;20031;-94
2023/09/19 00:25:17;;;;;;;17.25;3.22;;;;;;;14.73;100.00;100513.28;4961421;29;20031;-95
2023/09/19 00:27:44;;;;;;;21.38;2.65;;;;;;;14.72;100.00;100514.28;4943136;29;20035;-95
2023/09/19 00:30:19;;;;;;;20.75;2.97;;;;;;;14.73;100.00;100526.22;4972763;28;20047;-95
2023/09/19 00:32:47;;;;;;;21.42;2.88;;;;;;;14.69;100.00;100509.09;4943342;29;20122;-95
2023/09/19 00:35:16;;;;;;;21.02;2.85;;;;;;;14.70;100.00;100513.59;4959541;28;20018;-95
2023/09/19 00:37:42;;;;;;;23.92;3.05;;;;;;;14.66;100.00;100515.81;4960081;29;20023;-96
2023/09/19 00:40:15;;;;;;;25.02;3.08;;;;;;;14.67;100.00;100523.03;4943347;29;20023;-95
2023/09/19 00:42:48;;;;;;;19.23;2.38;;;;;;;14.61;100.00;100518.16;4942480;29;20055;-94
2023/09/19 00:45:16;;;;;;;19.77;2.25;;;;;;;14.63;100.00;100521.63;4959848;29;20027;-94
2023/09/19 00:47:46;;;;;;;22.27;3.10;;;;;;;14.58;100.00;100529.47;4943381;29;20021;-95
2023/09/19 00:50:14;;;;;;;16.98;2.40;;;;;;;14.53;100.00;100529.94;4944720;28;20040;-96
2023/09/19 00:52:42;;;;;;;17.40;2.65;;;;;;;14.49;100.00;100528.53;4959539;28;20363;-96
2023/09/19 00:55:11;;;;;;;18.30;2.75;;;;;;;14.52;100.00;100541.09;4951919;28;20051;-96
2023/09/19 00:57:40;;;;;;;17.65;2.30;;;;;;;14.52;100.00;100541.09;4924360;29;20028;-95
2023/09/19 01:00:15;;;;;;;18.45;3.55;;;;;;;14.52;100.00;100557.63;4956826;29;20518;-94
2023/09/19 01:02:45;;;;;;;20.95;2.45;;;;;;;14.46;100.00;100545.34;4943684;29;20047;-94
2023/09/19 01:05:12;;;;;;;17.15;2.03;;;;;;;14.46;100.00;100563.75;4966513;28;20035;-94
2023/09/19 01:07:41;;;;;;;19.80;2.63;;;;;;;14.39;100.00;100554.38;4941537;29;20031;-95
2023/09/19 01:10:14;;;;;;;21.75;2.53;;;;;;;14.42;100.00;100563.19;4959646;29;20023;-94
2023/09/19 01:12:40;;;;;;;21.17;2.35;;;;;;;14.38;100.00;100561.78;4959214;28;20039;-94
2023/09/19 01:15:36;;;;;;;19.75;2.45;;;;;;;14.41;100.00;100577.13;4959182;29;20034;-94
2023/09/19 01:18:10;;;;;;;18.80;2.13;;;;;;;14.40;100.00;100572.66;4945934;29;20035;-95
2023/09/19 01:20:58;;;;;;;17.58;2.25;;;;;;;14.39;100.00;100568.16;4958742;28;20038;-94
2023/09/19 01:23:45;;;;;;;15.95;2.80;;;;;;;14.34;100.00;100576.88;4953193;29;20027;-94
2023/09/19 01:26:28;;;;;;;22.42;2.28;;;;;;;14.37;100.00;100579.31;4959582;29;20086;-95
2023/09/19 01:28:57;;;;;;;17.52;2.17;;;;;;;14.42;100.00;100578.88;4958672;28;20031;-94
2023/09/19 01:31:24;;;;;;;17.50;2.05;;;;;;;14.44;100.00;100577.69;4968602;28;20030;-96
2023/09/19 01:34:07;;;;;;;16.17;2.05;;;;;;;14.36;100.00;100582.22;4977109;28;20043;-94
2023/09/19 01:36:38;;;;;;;12.90;2.63;;;;;;;14.34;100.00;100586.00;4962686;28;20039;-95
2023/09/19 01:39:13;;;;;;;13.90;1.90;;;;;;;14.36;100.00;100579.47;4940703;29;20075;-96
2023/09/19 01:42:10;;;;;;;20.48;2.30;;;;;;;14.32;100.00;100585.28;4953874;29;20034;-95
2023/09/19 01:44:44;;;;;;;11.23;1.77;;;;;;;14.24;100.00;100585.19;4957473;28;20039;-93
2023/09/19 01:47:38;;;;;;;13.07;1.80;;;;;;;14.24;100.00;100582.44;4958504;28;20031;-93
2023/09/19 01:50:06;;;;;;;13.73;2.75;;;;;;;14.23;100.00;100597.22;4946934;29;20043;-93
2023/09/19 01:52:38;;;;;;;16.33;2.65;;;;;;;14.34;100.00;100596.16;4947324;29;20035;-94
2023/09/19 01:55:10;;;;;;;16.33;2.35;;;;;;;14.34;100.00;100597.00;4936566;29;20193;-94
2023/09/19 01:58:25;;;;;;;17.75;2.05;;;;;;;14.37;100.00;100595.84;4940009;29;20101;-94
2023/09/19 02:00:52;;;;;;;20.30;2.60;;;;;;;14.27;100.00;100592.28;4916215;29;20024;-80
2023/09/19 02:03:19;;;;;;;22.05;3.22;;;;;;;14.25;100.00;100606.19;4940282;28;20047;-80
2023/09/19 02:05:51;;;;;;;20.85;3.38;;;;;;;14.17;100.00;100597.84;4964210;28;20138;-80
2023/09/19 02:08:23;;;;;;;13.27;2.25;;;;;;;14.29;100.00;100601.25;4959779;28;20031;-80
2023/09/19 02:10:49;;;;;;;17.13;2.28;;;;;;;14.25;100.00;100608.06;4950990;28;20035;-80
2023/09/19 02:13:22;;;;;;;17.45;2.67;;;;;;;14.21;100.00;100602.00;4944950;28;20035;-80
2023/09/19 02:15:47;;;;;;;;;;;;;;;14.19;100.00;100597.69;4947112;28;20126;-80
2023/09/19 02:18:14;;;;;;;20.80;2.05;;;;;;;14.19;100.00;100597.69;4940791;28;20054;-80
2023/09/19 02:20:39;;;;;;;19.70;2.63;;;;;;;14.20;100.00;100594.78;4963460;28;20594;-81
2023/09/19 02:23:05;;;;;;;10.73;2.15;;;;;;;14.20;100.00;100597.53;4920065;29;20118;-80
2023/09/19 02:25:33;;;;;;;8.00;1.70;;;;;;;14.18;100.00;100604.19;4928401;29;20034;-80
2023/09/19 02:27:59;;;;;;;15.77;2.05;;;;;;;14.10;100.00;100600.31;4950119;28;20034;-81
2023/09/19 02:30:27;;;;;;;17.90;2.72;;;;;;;14.14;100.00;100603.63;4934788;29;20047;-80
2023/09/19 02:32:53;;;;;;;21.77;2.72;;;;;;;14.11;100.00;100604.78;4926634;29;20038;-80
2023/09/19 02:35:21;;;;;;;19.90;2.55;;;;;;;14.13;100.00;100607.41;4928350;29;20039;-80
2023/09/19 02:37:47;;;;;;;19.58;2.22;;;;;;;13.98;100.00;100598.75;4944846;28;20044;-80
2023/09/19 02:40:19;;;;;;;20.88;2.30;;;;;;;14.02;100.00;100607.56;4946267;28;20035;-80
2023/09/19 02:42:52;;;;;;;15.23;1.90;;;;;;;14.00;100.00;100604.97;4935490;29;20031;-80
2023/09/19 02:45:19;;;;;;;14.25;2.35;;;;;;;13.89;100.00;100616.19;4926484;28;20132;-80
2023/09/19 02:47:48;;;;;;;18.55;2.40;;;;;;;13.89;100.00;100621.69;4950481;28;20514;-81
2023/09/19 02:50:15;;;;;;;20.00;2.20;;;;;;;13.85;100.00;100610.09;4941780;28;20039;-80
2023/09/19 02:52:43;;;;;;;13.18;1.80;;;;;;;13.87;100.00;100623.72;4948570;29;20027;-81
2023/09/19 02:55:09;;;;;;;11.18;1.92;;;;;;;13.86;100.00;100627.50;4945955;28;20510;-80
2023/09/19 02:57:36;;;;;;;14.40;2.30;;;;;;;13.86;100.00;100620.09;4950020;29;20044;-80
2023/09/19 03:00:02;;;;;;;11.90;1.88;;;;;;;13.82;100.00;100623.28;4946147;29;21217;-80
2023/09/19 03:02:27;;;;;;;22.80;4.22;;;;;;;13.84;100.00;100624.88;4945945;28;20051;-80
2023/09/19 03:04:53;;;;;;;20.67;2.00;;;;;;;13.80;100.00;100620.69;4947010;28;20038;-80
2023/09/19 03:07:19;;;;;;;15.95;2.00;;;;;;;13.78;100.00;100631.84;4956826;28;20035;-81
2023/09/19 03:09:44;;;;;;;19.40;2.22;;;;;;;13.70;100.00;100609.69;4947355;29;20038;-80
2023/09/19 03:12:10;;;;;;;10.73;1.77;;;;;;;13.81;100.00;100621.53;4928774;29;20043;-80
2023/09/19 03:14:37;;;;;;;19.52;2.22;;;;;;;13.74;100.00;100629.53;4944478;28;20466;-80
2023/09/19 03:17:05;;;;;;;11.52;1.65;;;;;;;13.80;100.00;100623.44;4948178;28;20035;-80
2023/09/19 03:19:33;;;;;;;26.27;3.72;;;;;;;13.76;100.00;100631.13;4955768;28;20478;-80
2023/09/19 03:21:59;;;;;;;16.33;1.60;;;;;;;13.82;100.00;100626.91;4943335;28;20050;-80
2023/09/19 03:24:24;;;;;;;15.98;1.90;;;;;;;13.76;100.00;100631.13;4918130;29;20039;-81
2023/09/19 03:26:49;;;;;;;16.75;1.67;;;;;;;13.77;100.00;100618.22;4942567;28;20050;-80
2023/09/19 03:29:17;;;;;;;22.65;2.42;;;;;;;13.76;100.00;100624.75;4951792;28;20031;-81
2023/09/19 03:31:42;;;;;;;11.60;1.70;;;;;;;13.70;100.00;100620.69;4945022;28;20031;-81
2023/09/19 03:34:11;;;;;;;15.50;1.48;;;;;;;13.70;100.00;100628.09;4940675;28;20098;-81
2023/09/19 03:36:36;;;;;;;9.50;2.08;;;;;;;13.73;100.00;100625.91;4951304;28;20035;-80
2023/09/19 03:39:04;;;;;;;13.68;2.72;;;;;;;13.73;100.00;100625.06;4946404;28;20097;-80
2023/09/19 03:41:31;;;;;;;15.20;2.60;;;;;;;13.74;100.00;100619.41;4919374;28;20436;-80
2023/09/19 03:43:57;;;;;;;14.90;2.13;;;;;;;13.78;100.00;100618.06;4948450;28;20242;-80
2023/09/19 03:46:22;;;;;;;13.10;1.75;;;;;;;13.77;100.00;100621.88;4949365;29;20113;-80
2023/09/19 03:48:47;;;;;;;15.40;2.40;;;;;;;13.71;100.00;100610.59;4946828;28;20379;-80
2023/09/19 03:51:13;;;;;;;17.52;2.35;;;;;;;13.71;100.00;100614.19;4934101;29;20540;-80
2023/09/19 03:53:38;;;;;;;19.15;2.22;;;;;;;13.66;100.00;100613.78;4947290;28;20119;-80
2023/09/19 03:56:05;;;;;;;14.13;1.90;;;;;;;13.64;100.00;100607.53;4921066;29;20391;-81
2023/09/19 03:58:30;;;;;;;8.23;2.70;;;;;;;13.65;100.00;100603.78;4947582;28;20035;-81
2023/09/19 04:00:56;;;;;;;21.13;2.13;;;;;;;13.63;100.00;100605.81;4941758;28;20035;-80
2023/09/19 04:03:22;;;;;;;18.75;3.63;;;;;;;13.59;100.00;100607.09;4927376;28;20126;-80
2023/09/19 04:05:47;;;;;;;20.83;2.03;;;;;;;13.58;100.00;100608.16;4946919;28;20048;-81
2023/09/19 04:08:14;;;;;;;15.50;2.72;;;;;;;13.54;100.00;100612.19;4947333;28;20035;-81
2023/09/19 04:10:42;;;;;;;8.63;1.50;;;;;;;13.55;100.00;100608.44;4946152;28;20114;-81
2023/09/19 04:13:07;;;;;;;16.27;1.50;;;;;;;13.51;100.00;100602.38;4956789;28;20039;-81
2023/09/19 04:15:33;;;;;;;15.23;2.20;;;;;;;13.56;100.00;100611.03;4923400;29;20079;-81
2023/09/19 04:17:58;;;;;;;22.67;2.08;;;;;;;13.55;100.00;100602.94;4924623;29;20409;-81
2023/09/19 04:20:23;;;;;;;9.95;1.90;;;;;;;13.58;100.00;100611.75;4931988;29;20032;-92
2023/09/19 04:22:50;;;;;;;19.08;2.33;;;;;;;13.71;100.00;100613.34;4939964;29;20067;-94
2023/09/19 04:25:16;;;;;;;14.98;3.08;;;;;;;13.75;100.00;100617.50;4935474;29;20039;-88
2023/09/19 04:27:47;;;;;;;15.75;2.65;;;;;;;13.77;100.00;100618.22;4963827;29;20019;-92
2023/09/19 04:30:14;;;;;;;12.43;2.05;;;;;;;13.72;100.00;100620.56;4958381;28;20034;-92
2023/09/19 04:32:40;;;;;;;24.17;2.60;;;;;;;13.71;100.00;100625.19;4943915;29;20069;-92
2023/09/19 04:35:10;;;;;;;21.63;2.22;;;;;;;13.75;100.00;100632.13;4939607;29;20035;-94
2023/09/19 04:37:45;;;;;;;17.90;2.13;;;;;;;13.71;100.00;100632.59;4957459;28;20051;-96
2023/09/19 04:40:17;;;;;;;15.80;2.47;;;;;;;13.70;100.00;100637.22;4961789;29;20087;-96
2023/09/19 04:42:43;;;;;;;18.67;2.20;;;;;;;13.68;100.00;100641.16;4933666;29;20031;-92
2023/09/19 04:45:10;;;;;;;9.88;1.98;;;;;;;13.70;100.00;100641.84;4935912;29;20038;-93
2023/09/19 04:47:39;;;;;;;21.20;2.78;;;;;;;13.71;100.00;100655.47;4960688;28;20484;-96
2023/09/19 04:50:11;;;;;;;13.13;1.77;;;;;;;13.78;100.00;100664.00;4965279;28;20042;-96
2023/09/19 04:52:44;;;;;;;24.55;2.95;;;;;;;13.72;100.00;100665.44;4968712;28;20556;-96
2023/09/19 04:55:16;;;;;;;24.52;2.47;;;;;;;13.68;100.00;100672.25;4961980;28;20035;-95
2023/09/19 04:57:43;;;;;;;10.47;1.67;;;;;;;13.65;100.00;100660.69;4946061;29;20031;-96
2023/09/19 05:00:12;;;;;;;18.48;2.70;;;;;;;13.69;100.00;100682.28;4924792;29;20020;-96
2023/09/19 05:02:39;;;;;;;22.55;2.95;;;;;;;13.71;100.00;100680.22;4943435;29;20101;-96
2023/09/19 05:05:06;;;;;;;17.17;2.15;;;;;;;13.70;100.00;100689.50;4925472;28;20039;-95
2023/09/19 05:07:34;;;;;;;15.73;2.20;;;;;;;13.75;100.00;100698.16;4955984;29;20047;-94
2023/09/19 05:09:59;;;;;;;11.60;2.10;;;;;;;13.79;100.00;100693.28;4956674;28;20556;-94
2023/09/19 05:12:26;;;;;;;19.50;2.45;;;;;;;13.87;100.00;100692.50;4955861;28;20145;-93
2023/09/19 05:14:53;;;;;;;22.20;3.35;;;;;;;13.89;100.00;100688.59;4937149;29;20043;-94
2023/09/19 05:17:19;;;;;;;16.70;2.40;;;;;;;13.91;100.00;100693.97;4926806;29;20035;-94
2023/09/19 05:19:45;;;;;;;24.80;2.33;;;;;;;13.90;100.00;100681.22;4925738;29;20446;-93
2023/09/19 05:22:12;;;;;;;19.75;1.95;;;;;;;13.96;100.00;100691.63;4959215;29;20138;-93
2023/09/19 05:24:38;;;;;;;14.80;2.28;;;;;;;14.03;100.00;100689.16;4927263;29;20074;-93
2023/09/19 05:27:07;;;;;;;13.02;2.63;;;;;;;14.03;100.00;100701.03;4943071;29;20038;-94
2023/09/19 05:29:33;;;;;;;18.13;1.98;;;;;;;14.08;100.00;100690.44;4924297;29;20499;-94
2023/09/19 05:31:59;;;;;;;17.95;3.58;;;;;;;14.04;100.00;100689.00;4932849;29;20190;-80
2023/09/19 05:34:28;;;;;;;15.38;2.03;;;;;;;14.03;100.00;100700.16;4930533;28;20162;-80
2023/09/19 05:36:54;;;;;;;14.25;2.08;;;;;;;14.06;100.00;100694.38;4946817;29;20133;-80
2023/09/19 05:39:19;;;;;;;13.25;2.50;;;;;;;14.06;100.00;100694.38;4933845;29;20495;-80
2023/09/19 05:41:47;;;;;;;12.15;1.70;;;;;;;14.05;100.00;100704.53;4929378;29;20039;-80
2023/09/19 05:44:13;;;;;;;18.17;2.25;;;;;;;14.11;100.00;100698.41;4929963;29;20518;-81
2023/09/19 05:46:39;;;;;;;13.65;1.92;;;;;;;13.98;100.00;100704.22;4952524;29;20127;-80
2023/09/19 05:49:05;;;;;;;18.75;2.17;;;;;;;13.99;100.00;100699.59;4963312;28;20044;-80
2023/09/19 05:51:30;;;;;;;14.52;1.85;;;;;;;13.96;100.00;100695.25;4953159;28;20134;-80
2023/09/19 05:53:56;;;;;;;23.88;2.63;;;;;;;14.04;100.00;100711.03;4936532;29;20196;-80
2023/09/19 05:56:22;;;;;;;17.08;2.42;;;;;;;14.02;100.00;100725.97;4952050;28;20054;-80
2023/09/19 05:58:47;;;;;;;31.75;2.97;;;;;;;14.03;100.00;100709.28;4944270;28;20031;-80
2023/09/19 06:01:13;;;;;;;18.30;1.88;;;;;;;14.00;100.00;100705.97;4945577;29;20034;-81
2023/09/19 06:03:38;;;;;;;18.40;2.13;;;;;;;14.06;100.00;100708.13;4931649;29;20047;-81
2023/09/19 06:06:06;;;;;;;21.33;2.90;;;;;;;13.98;100.00;100706.13;4947475;28;20483;-80
2023/09/19 06:08:33;;;;;;;14.85;2.63;;;;;;;14.02;100.00;100710.31;4947018;28;20478;-81
2023/09/19 06:11:02;;;;;;;17.70;1.90;;;;;;;14.10;100.00;100715.06;4951815;29;20495;-81
2023/09/19 06:13:33;;;;;;;13.05;2.08;;;;;;;14.13;100.00;100714.78;4942156;29;20043;-81
2023/09/19 06:16:02;;;;;;;18.95;2.65;;;;;;;14.16;100.00;100708.97;4946323;29;20054;-80
2023/09/19 06:18:29;;;;;;;15.88;2.30;;;;;;;14.20;100.00;100715.94;4941783;29;20043;-80
2023/09/19 06:20:55;;;;;;;18.98;2.53;;;;;;;14.20;100.00;100707.69;4926853;29;20069;-81
2023/09/19 06:23:21;;;;;;;20.45;3.03;;;;;;;14.25;100.00;100709.97;4946960;29;20122;-80
2023/09/19 06:25:46;;;;;;;21.83;2.60;;;;;;;14.27;100.00;100713.47;4948809;28;20059;-80
2023/09/19 06:28:12;;;;;;;20.23;2.38;;;;;;;14.36;100.00;100709.78;4946431;29;20051;-80
2023/09/19 06:30:39;;;;;;;23.48;2.67;;;;;;;14.35;100.00;100708.06;4951157;28;20039;-80
2023/09/19 06:33:06;;;;;;;30.40;3.10;;;;;;;14.38;100.00;100723.41;4943009;28;20111;-80
2023/09/19 06:35:33;;;;;;;16.30;2.58;;;;;;;14.33;100.00;100723.84;4943414;29;20039;-80
2023/09/19 06:37:58;;;;;;;25.02;4.00;;;;;;;14.34;100.00;100720.94;4947520;29;20400;-80
2023/09/19 06:40:28;;;;;;;13.10;2.45;;;;;;;14.36;100.00;100729.06;4947213;29;20034;-94
2023/09/19 06:42:55;;;;;;;13.70;1.75;;;;;;;14.40;100.00;100721.41;4959331;28;20050;-94
2023/09/19 06:45:21;;;;;;;16.83;2.58;;;;;;;14.49;100.00;100729.63;4940297;29;20038;-94
2023/09/19 06:47:51;;;;;;;21.48;2.60;;;;;;;14.42;100.00;100724.88;4933993;29;20043;-94
2023/09/19 06:50:22;;;;;;;20.67;2.15;;;;;;;14.45;100.00;100736.44;4957591;29;20135;-95
2023/09/19 06:52:53;;;;;;;14.73;1.80;;;;;;;14.50;100.00;100738.75;4970671;28;20050;-93
2023/09/19 06:55:20;;;;;;;14.93;2.92;;;;;;;14.47;100.00;100742.66;4945783;28;20020;-95
2023/09/19 06:57:46;;;;;;;18.85;2.55;;;;;;;14.59;100.00;100748.88;4956181;28;20042;-94
2023/09/19 07:00:18;;;;;;;16.23;2.35;;;;;;;14.58;100.00;100746.28;4956362;28;20031;-93
2023/09/19 07:02:54;;;;;;;18.00;2.30;;;;;;;14.65;100.00;100745.53;4933835;29;20490;-94
2023/09/19 07:05:21;;;;;;;9.73;1.75;;;;;;;14.61;100.00;100748.75;4952118;29;20194;-93
2023/09/19 07:07:47;;;;;;;22.17;2.33;;;;;;;14.66;100.00;100744.53;4940575;29;20039;-91
2023/09/19 07:10:14;;;;;;;20.55;2.50;;;;;;;14.67;100.00;100754.50;4941292;29;20042;-91
2023/09/19 07:12:41;;;;;;;20.52;3.80;;;;;;;14.62;100.00;100744.97;4926217;29;20063;-89
2023/09/19 07:15:06;;;;;;;23.52;3.13;;;;;;;14.73;100.00;100746.69;4958121;29;20042;-93
2023/09/19 07:17:33;;;;;;;28.70;2.97;;;;;;;14.71;100.00;100724.78;4937139;28;20027;-95
2023/09/19 07:19:58;;;;;;;14.45;2.20;;;;;;;14.68;100.00;100730.59;4928110;29;20023;-95
2023/09/19 07:22:29;;;;;;;18.60;2.03;;;;;;;14.87;100.00;100749.81;4930155;29;20047;-95
2023/09/19 07:37:52;;;;;;;21.88;2.97;;;;;;;15.17;100.00;100747.75;5759929;23;20126;-96
2023/09/19 07:45:55;;;;;;;15.07;2.08;;;;;;;15.28;100.00;100730.13;5706553;23;20052;-95
2023/09/19 07:50:56;;;;;;;23.23;2.55;;;;;;;15.36;100.00;100756.94;5052089;23;20060;-92
2023/09/19 07:53:22;;;;;;;18.20;2.55;;;;;;;15.38;100.00;100752.13;4868641;29;20043;-92
2023/09/19 07:55:48;;;;;;;19.98;2.65;;;;;;;15.37;100.00;100761.44;4861209;29;20060;-96
2023/09/19 07:58:16;;;;;;;17.35;2.83;;;;;;;15.40;100.00;100767.50;4886041;29;20058;-94
2023/09/19 08:08:28;;;;;;;24.00;2.70;;;;;;;15.73;100.00;100761.47;4939679;23;20052;-91
2023/09/19 08:11:01;;;;;;;19.30;2.35;;;;;;;15.92;100.00;100764.09;4902694;29;20028;-96
2023/09/19 08:13:31;;;;;;;20.65;2.53;;;;;;;15.76;100.00;100767.56;4908930;29;20037;-96
2023/09/19 08:15:57;;;;;;;22.60;2.67;;;;;;;15.94;100.00;100777.75;4883664;29;20040;-95
2023/09/19 08:41:40;;;;;;;19.90;1.80;;;;;;;17.12;100.00;100755.22;5945844;23;20015;-95
2023/09/19 08:44:08;;;;;;;18.63;2.20;;;;;;;17.00;100.00;100762.94;4899012;29;20048;-96
2023/09/19 08:46:35;;;;;;;17.45;2.05;;;;;;;16.88;100.00;100767.91;4880478;29;20593;-91
2023/09/19 09:02:25;;;;;;;21.17;2.45;;;;;;;17.82;100.00;100752.09;5081959;23;20084;-96
2023/09/19 09:04:50;;;;;;;21.70;2.53;;;;;;;17.95;100.00;100746.09;4908978;29;20410;-93
2023/09/19 09:07:19;;;;;;;25.33;2.53;;;;;;;17.97;100.00;100758.75;4892050;29;20069;-95
2023/09/19 09:09:45;;;;;;;13.07;2.17;;;;;;;17.59;100.00;100765.75;4908455;29;20068;-96
2023/09/19 09:12:17;;;;;;;16.67;2.45;;;;;;;17.66;100.00;100765.94;4893953;29;20028;-96
2023/09/19 09:30:34;;;;;;;30.33;2.42;;;;;;;18.56;100.00;100760.41;5892144;23;20023;-95
2023/09/19 09:49:39;;;;;;;27.50;2.72;;;;;;;18.97;100.00;100760.34;4932930;29;20052;-95
2023/09/19 09:52:05;;;;;;;16.50;2.83;;;;;;;19.26;100.00;100754.13;4914947;29;20050;-95
2023/09/19 09:54:37;;;;;;;20.02;2.40;;;;;;;19.26;100.00;100753.28;4903549;29;20040;-94
2023/09/19 09:57:13;;;;;;;18.40;2.20;;;;;;;19.60;100.00;100757.63;4906301;29;20064;-96
2023/09/19 09:59:58;;;;;;;17.30;2.45;;;;;;;19.19;100.00;100753.13;4897417;29;20300;-94
2023/09/19 10:02:36;;;;;;;17.48;2.78;;;;;;;19.34;100.00;100744.91;4913462;29;20500;-96
2023/09/19 10:08:00;;;;;;;13.27;1.90;;;;;;;19.85;100.00;100749.13;4915244;29;20043;-96
2023/09/19 10:13:13;;;;;;;16.13;2.30;;;;;;;19.41;100.00;100733.94;4906439;29;20040;-82
2023/09/19 10:15:48;;;;;;;11.38;2.00;;;;;;;19.49;100.00;100742.22;4875191;29;20046;-81
2023/09/19 10:18:18;;;;;;;15.98;2.20;;;;;;;19.73;100.00;100745.91;4908465;29;20029;-82
2023/09/19 10:20:45;;;;;;;18.75;2.15;;;;;;;20.02;100.00;100736.81;4879383;29;20527;-81
2023/09/19 10:23:12;;;;;;;11.95;1.92;;;;;;;19.69;100.00;100750.06;4892893;29;20493;-80
2023/09/19 10:25:43;;;;;;;17.83;2.50;;;;;;;19.58;100.00;100738.34;4910723;29;20032;-81
2023/09/19 10:28:10;;;;;;;25.23;2.65;;;;;;;19.67;100.00;100738.28;4877132;29;20044;-79
2023/09/19 10:30:41;;;;;;;11.30;2.05;;;;;;;19.95;100.00;100725.59;4892546;29;20063;-80
2023/09/19 10:33:08;;;;;;;21.33;2.20;;;;;;;19.55;100.00;100732.31;4892306;29;20032;-80
2023/09/19 10:35:43;;;;;;;14.05;2.45;;;;;;;19.29;100.00;100730.72;4873942;29;20064;-80
2023/09/19 10:38:14;;;;;;;19.17;2.63;;;;;;;19.51;100.00;100744.81;4902707;29;20028;-80
2023/09/19 10:40:43;;;;;;;15.93;2.15;;;;;;;19.78;100.00;100743.47;4908623;29;20068;-80
2023/09/19 10:43:18;;;;;;;16.05;2.10;;;;;;;19.34;100.00;100733.81;4904448;29;20441;-78
2023/09/19 10:45:45;;;;;;;11.52;1.83;;;;;;;19.31;100.00;100744.41;4907275;29;20040;-79
2023/09/19 10:48:12;;;;;;;12.10;1.60;;;;;;;19.89;100.00;100731.03;4875440;29;20467;-79
2023/09/19 10:50:45;;;;;;;16.30;2.28;;;;;;;20.30;100.00;100736.22;4884033;29;20031;-80
2023/09/19 10:53:13;;;;;;;16.85;2.08;;;;;;;20.56;100.00;100741.34;4911858;29;20039;-80
2023/09/19 10:55:39;;;;;;;14.57;1.98;;;;;;;20.53;100.00;100738.97;4887241;29;20066;-79
2023/09/19 10:58:14;;;;;;;16.77;1.85;;;;;;;20.14;100.00;100738.13;4896034;29;20058;-79
2023/09/19 11:00:52;;;;;;;14.90;1.88;;;;;;;20.06;100.00;100738.19;4887371;29;20032;-79
2023/09/19 11:03:20;;;;;;;14.40;2.25;;;;;;;20.08;100.00;100743.56;4897338;29;20119;-78
2023/09/19 11:06:00;;;;;;;17.52;2.60;;;;;;;20.34;100.00;100743.16;4887430;29;20036;-79
2023/09/19 11:08:27;;;;;;;14.30;2.03;;;;;;;20.61;100.00;100736.13;4904680;29;20119;-79
2023/09/19 11:10:52;;;;;;;16.92;2.03;;;;;;;20.47;100.00;100728.59;4908079;29;20119;-79
2023/09/19 11:13:30;;;;;;;16.52;2.45;;;;;;;20.13;100.00;100727.19;4884644;29;20500;-78
2023/09/19 11:15:59;;;;;;;22.95;2.55;;;;;;;20.30;100.00;100719.53;4882205;29;20135;-78
2023/09/19 11:18:40;;;;;;;17.05;2.30;;;;;;;20.57;100.00;100734.75;4910756;29;20060;-78
2023/09/19 11:21:29;;;;;;;12.65;1.90;;;;;;;20.64;100.00;100727.38;4915098;29;20064;-93
2023/09/19 11:24:10;;;;;;;20.08;2.65;;;;;;;20.53;100.00;100711.16;4902917;29;20016;-96
2023/09/19 11:26:49;;;;;;;10.02;1.58;;;;;;;20.14;100.00;100717.81;4912849;29;20092;-92
2023/09/19 11:29:29;;;;;;;14.75;2.50;;;;;;;20.44;100.00;100703.94;4900289;29;20075;-93
2023/09/19 11:31:56;;;;;;;12.60;1.70;;;;;;;20.37;100.00;100704.69;4893480;29;20079;-92
2023/09/19 11:34:41;;;;;;;11.57;1.90;;;;;;;20.47;100.00;100700.78;4911082;29;20079;-93
2023/09/19 11:37:11;;;;;;;9.70;2.03;;;;;;;20.18;100.00;100696.91;4904704;29;20032;-93
2023/09/19 11:40:16;;;;;;;12.70;2.10;;;;;;;20.58;100.00;100686.41;4913884;29;20529;-93
2023/09/19 11:42:45;;;;;;;13.43;2.03;;;;;;;20.77;100.00;100693.34;4902371;29;20096;-95
2023/09/19 11:45:56;;;;;;;15.35;1.83;;;;;;;19.98;100.00;100694.66;4935384;29;20040;-94
2023/09/19 11:48:27;;;;;;;12.10;1.67;;;;;;;20.09;100.00;100689.72;4894690;29;20056;-92
2023/09/19 11:50:54;;;;;;;19.70;2.00;;;;;;;20.36;100.00;100672.38;4891452;29;20047;-92
2023/09/19 11:53:22;;;;;;;9.23;1.55;;;;;;;20.30;100.00;100681.50;4906855;29;20024;-94
2023/09/19 11:55:49;;;;;;;14.50;1.80;;;;;;;20.50;100.00;100673.47;4890261;29;20032;-93
2023/09/19 11:58:19;;;;;;;13.63;1.60;;;;;;;20.61;100.00;100676.81;4879997;29;20031;-93
2023/09/19 12:00:46;;;;;;;8.55;1.40;;;;;;;20.75;100.00;100675.97;4906724;29;20056;-94
2023/09/19 12:03:17;;;;;;;13.95;1.98;;;;;;;20.54;100.00;100673.94;4894138;29;20037;-91
2023/09/19 12:05:43;;;;;;;8.18;1.42;;;;;;;20.61;100.00;100654.53;4907467;29;20038;-92
2023/09/19 12:08:08;;;;;;;10.57;1.40;;;;;;;20.68;99.85;100652.78;4909046;29;20060;-93
2023/09/19 12:10:55;;;;;;;9.15;1.35;;;;;;;20.38;100.00;100650.81;4892682;29;20055;-92
2023/09/19 12:13:21;;;;;;;8.43;1.50;;;;;;;20.83;100.00;100655.53;4910605;29;20048;-92
2023/09/19 12:15:49;;;;;;;11.95;1.40;;;;;;;20.43;100.00;100654.94;4879764;29;20035;-92
2023/09/19 12:18:35;;;;;;;10.05;1.52;;;;;;;20.20;100.00;100655.88;4902882;29;20025;-93
2023/09/19 12:21:07;;;;;;;10.45;1.50;;;;;;;20.12;100.00;100662.41;4893987;29;20040;-92
2023/09/19 12:23:35;;;;;;;11.20;1.20;;;;;;;20.25;100.00;100656.19;4878125;29;20064;-92
2023/09/19 12:26:12;;;;;;;8.35;1.13;;;;;;;20.02;100.00;100654.31;4914090;29;20483;-96
2023/09/19 12:28:45;;;;;;;6.78;1.00;;;;;;;20.15;100.00;100655.56;4890850;29;20040;-91
2023/09/19 12:31:11;;;;;;;;;;;;;;;20.37;100.00;100651.00;4871755;29;20029;-79
2023/09/19 12:33:37;;;;;;;11.95;1.20;;;;;;;20.68;100.00;100639.72;4894729;29;19962;-79
2023/09/19 12:36:25;;;;;;;4.85;1.00;;;;;;;20.65;100.00;100653.16;4896184;29;20040;-80
2023/09/19 12:38:52;;;;;;;6.82;1.00;;;;;;;20.31;100.00;100657.34;4873159;29;20032;-79
2023/09/19 12:41:18;;;;;;;9.73;1.20;;;;;;;20.55;100.00;100654.25;4871857;29;20464;-79
2023/09/19 12:43:45;;;;;;;6.18;0.90;;;;;;;20.64;100.00;100649.50;4894267;29;20127;-80
2023/09/19 12:46:11;;;;;;;5.60;0.95;;;;;;;20.85;100.00;100657.06;4888248;29;20407;-81
2023/09/19 12:48:43;;;;;;;8.35;1.27;;;;;;;21.02;100.00;100668.84;4878496;29;20043;-79
2023/09/19 12:51:12;;;;;;;12.95;1.30;;;;;;;20.80;100.00;100651.22;4879386;29;20028;-80
2023/09/19 12:53:43;;;;;;;5.38;0.88;;;;;;;20.73;100.00;100656.69;4892709;29;20053;-80
2023/09/19 12:56:10;;;;;;;10.27;1.65;;;;;;;20.35;100.00;100655.91;4891860;29;20028;-79
2023/09/19 12:58:55;;;;;;;8.73;0.82;;;;;;;20.09;100.00;100661.91;4897247;29;20035;-80
2023/09/19 13:01:27;;;;;;;5.25;1.80;;;;;;;20.18;100.00;100663.53;4905134;29;20024;-80
2023/09/19 13:04:12;;;;;;;5.25;0.80;;;;;;;20.58;100.00;100650.25;4886964;29;20032;-79